sensor_id;sensor_type;location;lat;lon;timestamp;pressure;altitude;pressure_sealevel;temperature;humidity
33404;BME280;19751;40.274;18.268;2022-12-07T00:03:31;100942.63;;;12.79;100.00
33404;BME280;19751;40.274;18.268;2022-12-07T00:06:00;100940.53;;;12.81;100.00
33404;BME280;19751;40.274;18.268;2022-12-07T00:08:27;100940.34;;;12.82;100.00
33404;BME280;19751;40.274;18.268;2022-12-07T00:10:52;100937.81;;;12.81;100.00
33404;BME280;19751;40.274;18.268;2022-12-07T00:13:18;100940.75;;;12.79;100.00
33404;BME280;19751;40.274;18.268;2022-12-07T00:15:44;100935.94;;;12.75;100.00
33404;BME280;19751;40.274;18.268;2022-12-07T00:18:09;100938.19;;;12.71;100.00
33404;BME280;19751;40.274;18.268;2022-12-07T00:20:35;100934.88;;;12.69;100.00
33404;BME280;19751;40.274;18.268;2022-12-07T00:23:00;100936.53;;;12.70;100.00
33404;BME280;19751;40.274;18.268;2022-12-07T00:25:26;100938.19;;;12.71;100.00
33404;BME280;19751;40.274;18.268;2022-12-07T00:27:52;100934.66;;;12.71;100.00
33404;BME280;19751;40.274;18.268;2022-12-07T00:30:18;100935.69;;;12.69;100.00
33404;BME280;19751;40.274;18.268;2022-12-07T00:32:44;100934.22;;;12.67;100.00
33404;BME280;19751;40.274;18.268;2022-12-07T00:35:09;100934.59;;;12.64;100.00
33404;BME280;19751;40.274;18.268;2022-12-07T00:37:35;100932.31;;;12.61;100.00
33404;BME280;19751;40.274;18.268;2022-12-07T00:40:01;100932.72;;;12.58;100.00
33404;BME280;19751;40.274;18.268;2022-12-07T00:42:26;100932.88;;;12.56;100.00
33404;BME280;19751;40.274;18.268;2022-12-07T00:44:51;100923.34;;;12.54;100.00
33404;BME280;19751;40.274;18.268;2022-12-07T00:47:17;100931.66;;;12.59;100.00
33404;BME280;19751;40.274;18.268;2022-12-07T00:49:42;100925.06;;;12.61;100.00
33404;BME280;19751;40.274;18.268;2022-12-07T00:52:08;100931.53;;;12.67;100.00
33404;BME280;19751;40.274;18.268;2022-12-07T00:54:34;100922.19;;;12.69;100.00
33404;BME280;19751;40.274;18.268;2022-12-07T00:56:59;100920.75;;;12.74;100.00
33404;BME280;19751;40.274;18.268;2022-12-07T00:59:24;100918.22;;;12.72;100.00
33404;BME280;19751;40.274;18.268;2022-12-07T01:01:50;100918.22;;;12.72;100.00
33404;BME280;19751;40.274;18.268;2022-12-07T01:04:15;100925.34;;;12.73;100.00
33404;BME280;19751;40.274;18.268;2022-12-07T01:06:41;100921.38;;;12.76;100.00
33404;BME280;19751;40.274;18.268;2022-12-07T01:09:07;100918.88;;;12.74;100.00
33404;BME280;19751;40.274;18.268;2022-12-07T01:11:33;100918.44;;;12.71;100.00
33404;BME280;19751;40.274;18.268;2022-12-07T01:13:59;100919.66;;;12.68;100.00
33404;BME280;19751;40.274;18.268;2022-12-07T01:16:27;100919.66;;;12.61;100.00
33404;BME280;19751;40.274;18.268;2022-12-07T01:18:54;100916.50;;;12.58;100.00
33404;BME280;19751;40.274;18.268;2022-12-07T01:21:29;100916.88;;;12.55;100.00
33404;BME280;19751;40.274;18.268;2022-12-07T01:23:57;100922.69;;;12.52;100.00
33404;BME280;19751;40.274;18.268;2022-12-07T01:26:23;100919.75;;;12.47;100.00
33404;BME280;19751;40.274;18.268;2022-12-07T01:28:50;100918.47;;;12.42;100.00
33404;BME280;19751;40.274;18.268;2022-12-07T01:31:18;100912.81;;;12.37;100.00
33404;BME280;19751;40.274;18.268;2022-12-07T01:33:47;100919.28;;;12.36;100.00
33404;BME280;19751;40.274;18.268;2022-12-07T01:36:20;100921.97;;;12.36;100.00
33404;BME280;19751;40.274;18.268;2022-12-07T01:38:47;100910.50;;;12.34;100.00
33404;BME280;19751;40.274;18.268;2022-12-07T01:41:14;100910.50;;;12.34;100.00
33404;BME280;19751;40.274;18.268;2022-12-07T01:49:40;100905.25;;;12.26;100.00
33404;BME280;19751;40.274;18.268;2022-12-07T01:54:44;100910.03;;;12.24;100.00
33404;BME280;19751;40.274;18.268;2022-12-07T01:57:11;100906.28;;;12.25;100.00
33404;BME280;19751;40.274;18.268;2022-12-07T01:59:38;100901.34;;;12.29;100.00
33404;BME280;19751;40.274;18.268;2022-12-07T02:02:07;100897.38;;;12.31;100.00
33404;BME280;19751;40.274;18.268;2022-12-07T02:04:35;100890.97;;;12.32;100.00
33404;BME280;19751;40.274;18.268;2022-12-07T02:07:03;100900.97;;;12.38;100.00
33404;BME280;19751;40.274;18.268;2022-12-07T02:09:29;100893.94;;;12.44;100.00
33404;BME280;19751;40.274;18.268;2022-12-07T02:11:55;100894.22;;;12.49;100.00
33404;BME280;19751;40.274;18.268;2022-12-07T02:14:21;100892.13;;;12.51;100.00
33404;BME280;19751;40.274;18.268;2022-12-07T02:19:39;100885.50;;;12.54;100.00
33404;BME280;19751;40.274;18.268;2022-12-07T02:28:19;100880.88;;;12.48;100.00
33404;BME280;19751;40.274;18.268;2022-12-07T02:30:55;100881.31;;;12.44;100.00
33404;BME280;19751;40.274;18.268;2022-12-07T02:33:41;100871.50;;;12.43;100.00
33404;BME280;19751;40.274;18.268;2022-12-07T02:36:10;100868.19;;;12.41;100.00
33404;BME280;19751;40.274;18.268;2022-12-07T02:38:45;100867.75;;;12.38;100.00
33404;BME280;19751;40.274;18.268;2022-12-07T02:41:17;100864.97;;;12.31;100.00
33404;BME280;19751;40.274;18.268;2022-12-07T02:43:49;100864.97;;;12.25;100.00
33404;BME280;19751;40.274;18.268;2022-12-07T02:46:32;100867.22;;;12.21;100.00
33404;BME280;19751;40.274;18.268;2022-12-07T02:48:59;100863.84;;;12.19;100.00
33404;BME280;19751;40.274;18.268;2022-12-07T02:51:30;100863.03;;;12.18;100.00
33404;BME280;19751;40.274;18.268;2022-12-07T02:53:55;100857.63;;;12.18;100.00
33404;BME280;19751;40.274;18.268;2022-12-07T03:02:04;100850.94;;;12.14;100.00
33404;BME280;19751;40.274;18.268;2022-12-07T03:04:56;100846.38;;;12.15;100.00
33404;BME280;19751;40.274;18.268;2022-12-07T03:19:29;100842.66;;;12.16;100.00
33404;BME280;19751;40.274;18.268;2022-12-07T03:21:38;100838.72;;;12.18;100.00
33404;BME280;19751;40.274;18.268;2022-12-07T03:24:08;100828.38;;;12.22;100.00
33404;BME280;19751;40.274;18.268;2022-12-07T03:26:38;100826.09;;;12.26;100.00
33404;BME280;19751;40.274;18.268;2022-12-07T03:29:20;100825.50;;;12.30;100.00
33404;BME280;19751;40.274;18.268;2022-12-07T03:31:55;100824.06;;;12.34;100.00
33404;BME280;19751;40.274;18.268;2022-12-07T03:37:01;100829.09;;;12.37;100.00
33404;BME280;19751;40.274;18.268;2022-12-07T03:41:58;100827.88;;;12.40;100.00
33404;BME280;19751;40.274;18.268;2022-12-07T03:44:26;100832.41;;;12.39;100.00
33404;BME280;19751;40.274;18.268;2022-12-07T03:47:25;100818.91;;;12.39;100.00
33404;BME280;19751;40.274;18.268;2022-12-07T03:50:15;100813.13;;;12.42;100.00
33404;BME280;19751;40.274;18.268;2022-12-07T03:53:04;100818.31;;;12.44;100.00
33404;BME280;19751;40.274;18.268;2022-12-07T03:55:33;100817.28;;;12.45;100.00
33404;BME280;19751;40.274;18.268;2022-12-07T03:58:07;100808.75;;;12.41;100.00
33404;BME280;19751;40.274;18.268;2022-12-07T04:00:34;100811.22;;;12.36;100.00
33404;BME280;19751;40.274;18.268;2022-12-07T04:03:00;100807.03;;;12.34;100.00
33404;BME280;19751;40.274;18.268;2022-12-07T04:05:26;100820.53;;;12.34;100.00
33404;BME280;19751;40.274;18.268;2022-12-07T04:07:52;100812.44;;;12.34;100.00
33404;BME280;19751;40.274;18.268;2022-12-07T04:10:17;100807.03;;;12.34;100.00
33404;BME280;19751;40.274;18.268;2022-12-07T04:12:43;100807.03;;;12.34;100.00
33404;BME280;19751;40.274;18.268;2022-12-07T04:15:09;100817.63;;;12.35;100.00
33404;BME280;19751;40.274;18.268;2022-12-07T04:17:35;100814.09;;;12.35;100.00
33404;BME280;19751;40.274;18.268;2022-12-07T04:20:01;100811.22;;;12.36;100.00
33404;BME280;19751;40.274;18.268;2022-12-07T04:22:27;100811.22;;;12.36;100.00
33404;BME280;19751;40.274;18.268;2022-12-07T04:24:52;100806.84;;;12.35;100.00
33404;BME280;19751;40.274;18.268;2022-12-07T04:27:18;100809.13;;;12.38;100.00
33404;BME280;19751;40.274;18.268;2022-12-07T04:29:43;100798.97;;;12.40;100.00
33404;BME280;19751;40.274;18.268;2022-12-07T04:32:09;100801.69;;;12.40;100.00
33404;BME280;19751;40.274;18.268;2022-12-07T04:34:34;100805.41;;;12.39;100.00
33404;BME280;19751;40.274;18.268;2022-12-07T04:37:00;100802.06;;;12.37;100.00
33404;BME280;19751;40.274;18.268;2022-12-07T04:39:28;100795.84;;;12.37;100.00
33404;BME280;19751;40.274;18.268;2022-12-07T04:41:55;100802.91;;;12.38;100.00
33404;BME280;19751;40.274;18.268;2022-12-07T04:44:22;100801.84;;;12.32;100.00
33404;BME280;19751;40.274;18.268;2022-12-07T04:46:48;100813.03;;;12.29;100.00
33404;BME280;19751;40.274;18.268;2022-12-07T04:49:14;100812.81;;;12.24;100.00
33404;BME280;19751;40.274;18.268;2022-12-07T04:51:41;100806.53;;;12.17;100.00
33404;BME280;19751;40.274;18.268;2022-12-07T04:54:06;100802.94;;;12.10;100.00
33404;BME280;19751;40.274;18.268;2022-12-07T04:56:32;100806.69;;;12.09;100.00
33404;BME280;19751;40.274;18.268;2022-12-07T04:59:00;100807.72;;;12.08;100.00
33404;BME280;19751;40.274;18.268;2022-12-07T05:01:26;100800.84;;;12.05;100.00
33404;BME280;19751;40.274;18.268;2022-12-07T05:03:52;100804.38;;;12.06;100.00
33404;BME280;19751;40.274;18.268;2022-12-07T05:06:17;100800.22;;;12.03;100.00
33404;BME280;19751;40.274;18.268;2022-12-07T05:08:43;100799.56;;;12.01;100.00
33404;BME280;19751;40.274;18.268;2022-12-07T05:11:09;100802.03;;;11.96;100.00
33404;BME280;19751;40.274;18.268;2022-12-07T05:13:55;100797.22;;;11.91;100.00
33404;BME280;19751;40.274;18.268;2022-12-07T05:16:20;100806.38;;;11.90;100.00
33404;BME280;19751;40.274;18.268;2022-12-07T05:18:46;100804.28;;;11.92;100.00
33404;BME280;19751;40.274;18.268;2022-12-07T05:21:12;100803.06;;;11.95;100.00
33404;BME280;19751;40.274;18.268;2022-12-07T05:23:37;100805.34;;;11.98;100.00
33404;BME280;19751;40.274;18.268;2022-12-07T05:26:03;100804.78;;;12.03;100.00
33404;BME280;19751;40.274;18.268;2022-12-07T05:28:28;100804.59;;;12.04;100.00
33404;BME280;19751;40.274;18.268;2022-12-07T05:30:54;100806.88;;;12.07;100.00
33404;BME280;19751;40.274;18.268;2022-12-07T05:33:19;100799.41;;;12.09;100.00
33404;BME280;19751;40.274;18.268;2022-12-07T05:35:45;100811.03;;;12.10;100.00
33404;BME280;19751;40.274;18.268;2022-12-07T05:38:10;100812.31;;;12.14;100.00
33404;BME280;19751;40.274;18.268;2022-12-07T05:40:36;100812.97;;;12.16;100.00
33404;BME280;19751;40.274;18.268;2022-12-07T05:43:02;100805.69;;;12.16;100.00
33404;BME280;19751;40.274;18.268;2022-12-07T05:45:27;100800.09;;;12.18;100.00
33404;BME280;19751;40.274;18.268;2022-12-07T05:47:53;100804.28;;;12.21;100.00
33404;BME280;19751;40.274;18.268;2022-12-07T05:50:19;100804.28;;;12.21;100.00
33404;BME280;19751;40.274;18.268;2022-12-07T05:52:44;100793.25;;;12.15;100.00
33404;BME280;19751;40.274;18.268;2022-12-07T05:55:11;100800.25;;;12.10;100.00
33404;BME280;19751;40.274;18.268;2022-12-07T05:57:36;100798.97;;;12.06;100.00
33404;BME280;19751;40.274;18.268;2022-12-07T06:00:03;100798.53;;;12.02;100.00
33404;BME280;19751;40.274;18.268;2022-12-07T06:02:29;100805.34;;;11.98;100.00
33404;BME280;19751;40.274;18.268;2022-12-07T06:04:55;100801.81;;;11.98;100.00
33404;BME280;19751;40.274;18.268;2022-12-07T06:07:20;100804.06;;;11.94;100.00
33404;BME280;19751;40.274;18.268;2022-12-07T06:09:46;100797.22;;;11.91;100.00
33404;BME280;19751;40.274;18.268;2022-12-07T06:12:12;100791.81;;;11.91;100.00
33404;BME280;19751;40.274;18.268;2022-12-07T06:14:56;100793.50;;;11.92;100.00
33404;BME280;19751;40.274;18.268;2022-12-07T06:17:22;100798.28;;;11.97;100.00
33404;BME280;19751;40.274;18.268;2022-12-07T06:19:48;100796.88;;;12.01;100.00
33404;BME280;19751;40.274;18.268;2022-12-07T06:22:13;100795.88;;;12.09;100.00
33404;BME280;19751;40.274;18.268;2022-12-07T06:24:41;100797.16;;;12.13;100.00
33404;BME280;19751;40.274;18.268;2022-12-07T06:27:07;100799.47;;;12.16;100.00
33404;BME280;19751;40.274;18.268;2022-12-07T06:29:33;100802.41;;;12.21;100.00
33404;BME280;19751;40.274;18.268;2022-12-07T06:31:58;100814.09;;;12.28;100.00
33404;BME280;19751;40.274;18.268;2022-12-07T06:34:24;100809.97;;;12.32;100.00
33404;BME280;19751;40.274;18.268;2022-12-07T06:36:51;100808.31;;;12.38;100.00
33404;BME280;19751;40.274;18.268;2022-12-07T06:39:19;100816.47;;;12.44;100.00
33404;BME280;19751;40.274;18.268;2022-12-07T06:41:45;100811.28;;;12.50;100.00
33404;BME280;19751;40.274;18.268;2022-12-07T06:44:10;100816.91;;;12.55;100.00
33404;BME280;19751;40.274;18.268;2022-12-07T06:46:36;100813.00;;;12.57;100.00
33404;BME280;19751;40.274;18.268;2022-12-07T06:49:03;100811.13;;;12.64;100.00
33404;BME280;19751;40.274;18.268;2022-12-07T06:51:30;100804.94;;;12.71;100.00
33404;BME280;19751;40.274;18.268;2022-12-07T06:53:56;100803.50;;;12.75;100.00
33404;BME280;19751;40.274;18.268;2022-12-07T06:56:22;100803.50;;;12.81;100.00
33404;BME280;19751;40.274;18.268;2022-12-07T06:58:48;100803.75;;;12.86;100.00
33404;BME280;19751;40.274;18.268;2022-12-07T07:01:16;100804.59;;;12.93;100.00
33404;BME280;19751;40.274;18.268;2022-12-07T07:03:42;100801.47;;;12.97;100.00
33404;BME280;19751;40.274;18.268;2022-12-07T07:06:08;100800.03;;;13.01;100.00
33404;BME280;19751;40.274;18.268;2022-12-07T07:08:35;100813.59;;;13.07;100.00
33404;BME280;19751;40.274;18.268;2022-12-07T07:11:01;100811.94;;;13.13;100.00
33404;BME280;19751;40.274;18.268;2022-12-07T07:13:27;100806.56;;;13.19;100.00
33404;BME280;19751;40.274;18.268;2022-12-07T07:15:53;100800.34;;;13.26;100.00
33404;BME280;19751;40.274;18.268;2022-12-07T07:18:19;100803.91;;;13.33;100.00
33404;BME280;19751;40.274;18.268;2022-12-07T07:20:44;100800.34;;;13.39;100.00
33404;BME280;19751;40.274;18.268;2022-12-07T07:23:10;100806.81;;;13.45;100.00
33404;BME280;19751;40.274;18.268;2022-12-07T07:25:35;100804.09;;;13.51;100.00
33404;BME280;19751;40.274;18.268;2022-12-07T07:28:03;100800.19;;;13.60;100.00
33404;BME280;19751;40.274;18.268;2022-12-07T07:30:29;100808.94;;;13.69;100.00
33404;BME280;19751;40.274;18.268;2022-12-07T07:33:00;100802.66;;;13.75;100.00
33404;BME280;19751;40.274;18.268;2022-12-07T07:35:27;100801.84;;;13.81;100.00
33404;BME280;19751;40.274;18.268;2022-12-07T07:37:52;100805.34;;;13.88;100.00
33404;BME280;19751;40.274;18.268;2022-12-07T07:40:18;100811.59;;;13.96;100.00
33404;BME280;19751;40.274;18.268;2022-12-07T07:42:46;100814.50;;;14.01;100.00
33404;BME280;19751;40.274;18.268;2022-12-07T07:45:12;100802.84;;;14.07;100.00
33404;BME280;19751;40.274;18.268;2022-12-07T07:47:37;100807.41;;;14.13;100.00
33404;BME280;19751;40.274;18.268;2022-12-07T07:50:03;100802.81;;;14.20;100.00
33404;BME280;19751;40.274;18.268;2022-12-07T07:52:29;100810.72;;;14.28;100.00
33404;BME280;19751;40.274;18.268;2022-12-07T07:54:54;100806.13;;;14.35;100.00
33404;BME280;19751;40.274;18.268;2022-12-07T07:57:20;100809.03;;;14.40;100.00
33404;BME280;19751;40.274;18.268;2022-12-07T07:59:45;100812.97;;;14.45;100.00
33404;BME280;19751;40.274;18.268;2022-12-07T08:02:15;100806.13;;;14.49;100.00
33404;BME280;19751;40.274;18.268;2022-12-07T08:04:42;100808.41;;;14.52;100.00
33404;BME280;19751;40.274;18.268;2022-12-07T08:07:08;100805.25;;;14.55;100.00
33404;BME280;19751;40.274;18.268;2022-12-07T08:09:33;100803.56;;;14.60;100.00
33404;BME280;19751;40.274;18.268;2022-12-07T08:11:59;100809.19;;;14.65;100.00
33404;BME280;19751;40.274;18.268;2022-12-07T08:14:25;100806.88;;;14.69;100.00
33404;BME280;19751;40.274;18.268;2022-12-07T08:16:52;100811.44;;;14.75;100.00
33404;BME280;19751;40.274;18.268;2022-12-07T08:19:18;100804.53;;;14.79;100.00
33404;BME280;19751;40.274;18.268;2022-12-07T08:21:44;100811.00;;;14.85;100.00
33404;BME280;19751;40.274;18.268;2022-12-07T08:24:09;100807.63;;;14.89;100.00
33404;BME280;19751;40.274;18.268;2022-12-07T08:26:35;100812.41;;;14.94;100.00
33404;BME280;19751;40.274;18.268;2022-12-07T08:29:00;100818.81;;;15.00;100.00
33404;BME280;19751;40.274;18.268;2022-12-07T08:31:26;100820.88;;;15.04;100.00
33404;BME280;19751;40.274;18.268;2022-12-07T08:33:53;100818.81;;;15.06;100.00
33404;BME280;19751;40.274;18.268;2022-12-07T08:36:19;100824.00;;;15.08;100.00
33404;BME280;19751;40.274;18.268;2022-12-07T08:38:44;100822.28;;;15.13;100.00
33404;BME280;19751;40.274;18.268;2022-12-07T08:41:10;100805.97;;;15.20;100.00
33404;BME280;19751;40.274;18.268;2022-12-07T08:43:35;100817.47;;;15.22;100.00
33404;BME280;19751;40.274;18.268;2022-12-07T08:48:27;100818.06;;;15.24;100.00
33404;BME280;19751;40.274;18.268;2022-12-07T08:50:52;100809.25;;;15.29;100.00
33404;BME280;19751;40.274;18.268;2022-12-07T08:53:18;100813.44;;;15.31;100.00
33404;BME280;19751;40.274;18.268;2022-12-07T08:55:47;100806.94;;;15.32;100.00
33404;BME280;19751;40.274;18.268;2022-12-07T08:58:13;100813.84;;;15.35;100.00
33404;BME280;19751;40.274;18.268;2022-12-07T09:00:39;100815.88;;;15.39;100.00
33404;BME280;19751;40.274;18.268;2022-12-07T09:03:04;100807.47;;;15.48;100.00
33404;BME280;19751;40.274;18.268;2022-12-07T09:05:32;100810.13;;;15.54;100.00
33404;BME280;19751;40.274;18.268;2022-12-07T09:08:00;100801.72;;;15.62;100.00
33404;BME280;19751;40.274;18.268;2022-12-07T09:10:27;100802.75;;;15.68;100.00
33404;BME280;19751;40.274;18.268;2022-12-07T09:12:53;100802.69;;;15.75;100.00
33404;BME280;19751;40.274;18.268;2022-12-07T09:15:18;100797.88;;;15.77;100.00
33404;BME280;19751;40.274;18.268;2022-12-07T09:17:43;100808.28;;;15.80;100.00
33404;BME280;19751;40.274;18.268;2022-12-07T09:20:09;100799.47;;;15.84;100.00
33404;BME280;19751;40.274;18.268;2022-12-07T09:22:35;100789.38;;;15.91;100.00
33404;BME280;19751;40.274;18.268;2022-12-07T09:25:01;100798.53;;;15.97;100.00
33404;BME280;19751;40.274;18.268;2022-12-07T09:27:28;100800.56;;;16.02;100.00
33404;BME280;19751;40.274;18.268;2022-12-07T09:29:53;100792.19;;;16.03;100.00
33404;BME280;19751;40.274;18.268;2022-12-07T09:32:19;100799.50;;;16.03;100.00
33404;BME280;19751;40.274;18.268;2022-12-07T09:34:44;100788.19;;;16.06;100.00
33404;BME280;19751;40.274;18.268;2022-12-07T09:37:10;100784.19;;;16.08;100.00
33404;BME280;19751;40.274;18.268;2022-12-07T09:39:39;100797.38;;;16.05;100.00
33404;BME280;19751;40.274;18.268;2022-12-07T09:42:05;100794.91;;;16.03;100.00
33404;BME280;19751;40.274;18.268;2022-12-07T09:44:32;100799.75;;;16.01;100.00
33404;BME280;19751;40.274;18.268;2022-12-07T09:46:58;100787.00;;;16.02;100.00
33404;BME280;19751;40.274;18.268;2022-12-07T09:49:28;100794.66;;;16.05;100.00
33404;BME280;19751;40.274;18.268;2022-12-07T09:54:36;100783.06;;;16.16;100.00
33404;BME280;19751;40.274;18.268;2022-12-07T09:57:02;100775.63;;;16.30;100.00
33404;BME280;19751;40.274;18.268;2022-12-07T09:59:28;100776.72;;;16.40;100.00
33404;BME280;19751;40.274;18.268;2022-12-07T10:01:55;100780.81;;;16.50;100.00
33404;BME280;19751;40.274;18.268;2022-12-07T10:04:29;100774.47;;;16.56;100.00
33404;BME280;19751;40.274;18.268;2022-12-07T10:06:55;100776.81;;;16.52;100.00
33404;BME280;19751;40.274;18.268;2022-12-07T10:09:21;100777.25;;;16.49;100.00
33404;BME280;19751;40.274;18.268;2022-12-07T10:12:13;100771.44;;;16.46;100.00
33404;BME280;19751;40.274;18.268;2022-12-07T10:14:53;100769.19;;;16.43;100.00
33404;BME280;19751;40.274;18.268;2022-12-07T10:17:34;100764.13;;;16.46;100.00
33404;BME280;19751;40.274;18.268;2022-12-07T10:20:23;100762.47;;;16.45;100.00
33404;BME280;19751;40.274;18.268;2022-12-07T10:25:33;100764.59;;;16.43;100.00
33404;BME280;19751;40.274;18.268;2022-12-07T10:30:45;100757.13;;;16.38;100.00
33404;BME280;19751;40.274;18.268;2022-12-07T10:35:52;100745.50;;;16.31;100.00
33404;BME280;19751;40.274;18.268;2022-12-07T10:38:18;100739.22;;;16.31;100.00
33404;BME280;19751;40.274;18.268;2022-12-07T10:40:43;100745.94;;;16.28;100.00
33404;BME280;19751;40.274;18.268;2022-12-07T10:48:36;100745.09;;;16.28;100.00
33404;BME280;19751;40.274;18.268;2022-12-07T10:51:15;100735.06;;;16.28;100.00
33404;BME280;19751;40.274;18.268;2022-12-07T10:56:29;100735.81;;;16.35;100.00
33404;BME280;19751;40.274;18.268;2022-12-07T10:59:19;100731.78;;;16.38;100.00
33404;BME280;19751;40.274;18.268;2022-12-07T11:05:06;100728.94;;;16.51;100.00
33404;BME280;19751;40.274;18.268;2022-12-07T11:10:52;100726.50;;;16.61;100.00
33404;BME280;19751;40.274;18.268;2022-12-07T11:13:33;100726.50;;;16.61;100.00
33404;BME280;19751;40.274;18.268;2022-12-07T11:27:46;100711.03;;;16.44;100.00
33404;BME280;19751;40.274;18.268;2022-12-07T11:30:23;100703.09;;;16.42;100.00
33404;BME280;19751;40.274;18.268;2022-12-07T11:32:59;100702.50;;;16.40;100.00
33404;BME280;19751;40.274;18.268;2022-12-07T11:38:01;100701.13;;;16.49;100.00
33404;BME280;19751;40.274;18.268;2022-12-07T11:40:35;100698.41;;;16.49;100.00
33404;BME280;19751;40.274;18.268;2022-12-07T11:45:44;100698.03;;;16.46;100.00
33404;BME280;19751;40.274;18.268;2022-12-07T11:48:32;100706.19;;;16.46;100.00
33404;BME280;19751;40.274;18.268;2022-12-07T11:51:00;100701.97;;;16.50;100.00
33404;BME280;19751;40.274;18.268;2022-12-07T11:53:35;100698.78;;;16.53;100.00
33404;BME280;19751;40.274;18.268;2022-12-07T11:56:12;100695.81;;;16.54;100.00
33404;BME280;19751;40.274;18.268;2022-12-07T12:04:07;100687.47;;;16.56;100.00
33404;BME280;19751;40.274;18.268;2022-12-07T12:06:43;100681.34;;;16.60;100.00
33404;BME280;19751;40.274;18.268;2022-12-07T12:09:18;100677.47;;;16.68;100.00
33404;BME280;19751;40.274;18.268;2022-12-07T12:14:42;100673.00;;;16.74;100.00
33404;BME280;19751;40.274;18.268;2022-12-07T12:17:17;100678.66;;;16.72;100.00
33404;BME280;19751;40.274;18.268;2022-12-07T12:22:43;100673.06;;;16.67;100.00
33404;BME280;19751;40.274;18.268;2022-12-07T12:25:23;100662.66;;;16.64;100.00
33404;BME280;19751;40.274;18.268;2022-12-07T12:27:50;100663.75;;;16.63;100.00
33404;BME280;19751;40.274;18.268;2022-12-07T12:30:43;100659.69;;;16.65;100.00
33404;BME280;19751;40.274;18.268;2022-12-07T12:33:29;100661.59;;;16.65;100.00
33404;BME280;19751;40.274;18.268;2022-12-07T12:50:17;100674.56;;;16.51;100.00
33404;BME280;19751;40.274;18.268;2022-12-07T12:57:36;100651.00;;;16.45;100.00
33404;BME280;19751;40.274;18.268;2022-12-07T13:00:23;100647.44;;;16.45;100.00
33404;BME280;19751;40.274;18.268;2022-12-07T13:02:54;100666.03;;;16.48;100.00
33404;BME280;19751;40.274;18.268;2022-12-07T13:05:23;100654.69;;;16.51;100.00
33404;BME280;19751;40.274;18.268;2022-12-07T13:10:44;100658.47;;;16.50;100.00
33404;BME280;19751;40.274;18.268;2022-12-07T13:15:55;100661.03;;;16.45;100.00
33404;BME280;19751;40.274;18.268;2022-12-07T13:18:40;100662.56;;;16.40;100.00
33404;BME280;19751;40.274;18.268;2022-12-07T13:29:18;100653.03;;;16.50;100.00
33404;BME280;19751;40.274;18.268;2022-12-07T13:31:52;100654.69;;;16.51;100.00
33404;BME280;19751;40.274;18.268;2022-12-07T13:34:37;100647.59;;;16.50;100.00
33404;BME280;19751;40.274;18.268;2022-12-07T13:37:25;100655.75;;;16.50;100.00
33404;BME280;19751;40.274;18.268;2022-12-07T13:40:18;100644.88;;;16.50;100.00
33404;BME280;19751;40.274;18.268;2022-12-07T13:42:45;100642.63;;;16.47;100.00
33404;BME280;19751;40.274;18.268;2022-12-07T13:45:23;100644.72;;;16.45;100.00
33404;BME280;19751;40.274;18.268;2022-12-07T13:48:15;100650.63;;;16.41;100.00
33404;BME280;19751;40.274;18.268;2022-12-07T13:50:52;100647.91;;;16.41;100.00
33404;BME280;19751;40.274;18.268;2022-12-07T13:53:18;100640.38;;;16.44;100.00
33404;BME280;19751;40.274;18.268;2022-12-07T13:55:46;100647.44;;;16.45;100.00
33404;BME280;19751;40.274;18.268;2022-12-07T13:58:12;100649.59;;;16.43;100.00
33404;BME280;19751;40.274;18.268;2022-12-07T14:00:39;100649.59;;;16.43;100.00
33404;BME280;19751;40.274;18.268;2022-12-07T14:05:38;100654.16;;;16.42;100.00
33404;BME280;19751;40.274;18.268;2022-12-07T14:08:20;100648.97;;;16.40;100.00
33404;BME280;19751;40.274;18.268;2022-12-07T14:13:34;100653.22;;;16.36;100.00
33404;BME280;19751;40.274;18.268;2022-12-07T14:16:02;100660.78;;;16.34;100.00
33404;BME280;19751;40.274;18.268;2022-12-07T14:18:29;100661.47;;;16.30;100.00
33404;BME280;19751;40.274;18.268;2022-12-07T14:21:15;100659.41;;;16.25;100.00
33404;BME280;19751;40.274;18.268;2022-12-07T14:23:42;100652.94;;;16.26;100.00
33404;BME280;19751;40.274;18.268;2022-12-07T14:28:38;100661.78;;;16.22;100.00
33404;BME280;19751;40.274;18.268;2022-12-07T14:31:12;100663.28;;;16.18;100.00
33404;BME280;19751;40.274;18.268;2022-12-07T14:33:38;100663.75;;;16.14;100.00
33404;BME280;19751;40.274;18.268;2022-12-07T14:36:04;100667.72;;;16.12;100.00
33404;BME280;19751;40.274;18.268;2022-12-07T14:38:29;100663.59;;;16.09;100.00
33404;BME280;19751;40.274;18.268;2022-12-07T14:40:56;100664.06;;;16.06;100.00
33404;BME280;19751;40.274;18.268;2022-12-07T14:43:45;100665.56;;;16.02;100.00
33404;BME280;19751;40.274;18.268;2022-12-07T14:46:11;100662.47;;;15.99;100.00
33404;BME280;19751;40.274;18.268;2022-12-07T14:48:36;100661.88;;;15.97;100.00
33404;BME280;19751;40.274;18.268;2022-12-07T14:51:02;100662.31;;;15.94;100.00
33404;BME280;19751;40.274;18.268;2022-12-07T14:53:33;100665.47;;;15.90;100.00
33404;BME280;19751;40.274;18.268;2022-12-07T14:55:59;100671.84;;;15.84;100.00
33404;BME280;19751;40.274;18.268;2022-12-07T14:58:24;100673.94;;;15.82;100.00